createdAt,value
2017-11-13T00:01:05.899Z,0
2017-11-13T00:02:14.724Z,0
2017-11-13T00:03:23.547Z,0
2017-11-13T00:04:32.373Z,0
2017-11-13T00:05:41.199Z,0
2017-11-13T00:06:50.124Z,0
2017-11-13T00:07:58.956Z,0
2017-11-13T00:09:07.775Z,0
2017-11-13T00:10:16.600Z,0
2017-11-13T00:11:25.425Z,0
2017-11-13T00:12:34.348Z,0
2017-11-13T00:13:43.176Z,0
2017-11-13T00:14:52.000Z,0
2017-11-13T00:16:00.828Z,0
2017-11-13T00:17:09.655Z,0
2017-11-13T00:18:18.582Z,0
2017-11-13T00:19:27.407Z,0
2017-11-13T00:20:36.229Z,0
2017-11-13T00:21:45.058Z,0
2017-11-13T00:22:53.888Z,0
2017-11-13T00:24:02.859Z,0
2017-11-13T00:25:11.684Z,0
2017-11-13T00:26:20.508Z,0
2017-11-13T00:27:29.332Z,0
2017-11-13T00:28:38.157Z,0
2017-11-13T00:29:47.083Z,0
2017-11-13T00:30:55.916Z,0
2017-11-13T00:32:05.080Z,0
2017-11-13T00:33:13.926Z,0
2017-11-13T00:34:22.729Z,0
2017-11-13T00:35:31.708Z,0
2017-11-13T00:36:40.583Z,0
2017-11-13T00:37:49.410Z,0
2017-11-13T00:38:58.237Z,0
2017-11-13T00:40:07.060Z,0
2017-11-13T00:41:15.985Z,0
2017-11-13T00:42:24.810Z,0
2017-11-13T00:43:33.660Z,0
2017-11-13T00:44:42.461Z,0
2017-11-13T00:45:51.634Z,0
2017-11-13T00:47:00.802Z,0
2017-11-13T00:48:09.970Z,0
2017-11-13T00:49:18.799Z,0
2017-11-13T00:50:27.624Z,0
2017-11-13T00:51:36.452Z,0
2017-11-13T00:52:45.429Z,0
2017-11-13T00:53:54.261Z,0
2017-11-13T00:55:03.426Z,0
2017-11-13T00:56:12.252Z,0
2017-11-13T00:57:21.082Z,0
2017-11-13T00:58:29.902Z,0
2017-11-13T00:59:38.729Z,0
2017-11-13T01:00:47.556Z,0
2017-11-13T01:01:56.393Z,0
2017-11-13T01:03:05.563Z,0
2017-11-13T01:04:14.638Z,0
2017-11-13T01:05:23.465Z,0
2017-11-13T01:06:32.291Z,0
2017-11-13T01:07:41.119Z,0
2017-11-13T01:08:49.942Z,0
2017-11-13T01:09:58.770Z,0
2017-11-13T01:11:07.595Z,0
2017-11-13T01:12:16.432Z,0
2017-11-13T01:13:25.244Z,0
2017-11-13T01:14:34.068Z,0
2017-11-13T01:15:43.043Z,0
2017-11-13T01:16:51.869Z,0
2017-11-13T01:18:00.692Z,0
2017-11-13T01:19:09.519Z,0
2017-11-13T01:20:18.341Z,0
2017-11-13T01:21:27.954Z,0
2017-11-13T01:22:36.783Z,0
2017-11-13T01:23:45.606Z,0
2017-11-13T01:24:54.433Z,0
2017-11-13T01:26:03.605Z,0
2017-11-13T01:27:12.582Z,0
2017-11-13T01:28:21.409Z,0
2017-11-13T01:29:30.235Z,0
2017-11-13T01:30:39.062Z,0
2017-11-13T01:31:47.890Z,0
2017-11-13T01:32:57.014Z,0
2017-11-13T01:34:05.837Z,0
2017-11-13T01:35:15.013Z,0
2017-11-13T01:36:23.835Z,0
2017-11-13T01:37:32.660Z,0
2017-11-13T01:38:41.928Z,0
2017-11-13T01:39:51.100Z,0
2017-11-13T01:40:59.923Z,0
2017-11-13T01:42:08.747Z,0
2017-11-13T01:43:17.582Z,0
2017-11-13T01:44:26.457Z,0
2017-11-13T01:45:35.987Z,0
2017-11-13T01:46:44.911Z,0
2017-11-13T01:47:53.735Z,0
2017-11-13T01:49:02.561Z,0
2017-11-13T01:50:11.387Z,0
2017-11-13T01:51:20.211Z,0
2017-11-13T01:52:29.038Z,0
2017-11-13T01:53:37.864Z,0
2017-11-13T01:54:46.691Z,0
2017-11-13T01:55:55.516Z,0
2017-11-13T01:57:04.340Z,0
2017-11-13T01:58:13.171Z,0
2017-11-13T01:59:21.993Z,0
2017-11-13T02:00:30.820Z,0
2017-11-13T02:01:39.644Z,0
2017-11-13T02:02:48.472Z,0
2017-11-13T02:03:57.293Z,0
2017-11-13T02:05:06.118Z,0
2017-11-13T02:06:14.943Z,0
2017-11-13T02:07:24.018Z,0
2017-11-13T02:08:32.844Z,0
2017-11-13T02:09:41.721Z,0
2017-11-13T02:10:50.545Z,0
2017-11-13T02:11:59.370Z,0
2017-11-13T02:13:08.296Z,0
2017-11-13T02:14:17.124Z,0
2017-11-13T02:15:26.311Z,0
2017-11-13T02:16:35.137Z,0
2017-11-13T02:17:44.309Z,0
2017-11-13T02:18:53.433Z,0
2017-11-13T02:20:02.257Z,0
2017-11-13T02:21:11.085Z,0
2017-11-13T02:22:19.911Z,0
2017-11-13T02:23:28.735Z,0
2017-11-13T02:24:37.712Z,0
2017-11-13T02:25:46.537Z,0
2017-11-13T02:26:55.366Z,0
2017-11-13T02:28:04.192Z,0
2017-11-13T02:29:13.019Z,0
2017-11-13T02:30:22.143Z,0
2017-11-13T02:31:30.972Z,0
2017-11-13T02:32:40.147Z,0
2017-11-13T02:33:48.964Z,0
2017-11-13T02:34:57.789Z,0
2017-11-13T02:36:06.718Z,0
2017-11-13T02:37:15.888Z,0
2017-11-13T02:38:24.713Z,0
2017-11-13T02:39:33.540Z,0
2017-11-13T02:40:42.717Z,0
2017-11-13T02:41:51.839Z,0
2017-11-13T02:43:00.665Z,0
2017-11-13T02:44:09.491Z,0
2017-11-13T02:45:18.324Z,0
2017-11-13T02:46:27.150Z,0
2017-11-13T02:47:36.437Z,0
2017-11-13T02:48:45.261Z,0
2017-11-13T02:49:54.093Z,0
2017-11-13T02:51:02.912Z,0
2017-11-13T02:52:11.735Z,0
2017-11-13T02:53:21.007Z,0
2017-11-13T02:54:29.834Z,0
2017-11-13T02:55:38.660Z,0
2017-11-13T02:56:47.487Z,0
2017-11-13T02:57:56.314Z,0
2017-11-13T02:59:05.442Z,0
2017-11-13T03:00:14.264Z,0
2017-11-13T03:01:23.093Z,0
2017-11-13T03:02:31.937Z,0
2017-11-13T03:03:40.745Z,0
2017-11-13T03:04:49.566Z,0
2017-11-13T03:05:58.393Z,0
2017-11-13T03:07:07.221Z,0
2017-11-13T03:08:16.391Z,0
2017-11-13T03:09:25.216Z,0
2017-11-13T03:10:34.342Z,0
2017-11-13T03:11:43.175Z,0
2017-11-13T03:12:51.995Z,0
2017-11-13T03:14:00.820Z,0
2017-11-13T03:15:09.655Z,0
2017-11-13T03:16:18.770Z,0
2017-11-13T03:17:27.593Z,0
2017-11-13T03:18:36.419Z,0
2017-11-13T03:19:45.244Z,0
2017-11-13T03:20:54.068Z,0
2017-11-13T03:22:02.993Z,0
2017-11-13T03:23:11.821Z,0
2017-11-13T03:24:20.993Z,0
2017-11-13T03:25:29.818Z,0
2017-11-13T03:26:38.643Z,0
2017-11-13T03:27:47.620Z,0
2017-11-13T03:28:56.446Z,0
2017-11-13T03:30:05.272Z,0
2017-11-13T03:31:14.452Z,0
2017-11-13T03:32:23.270Z,0
2017-11-13T03:33:32.196Z,0
2017-11-13T03:34:41.024Z,0
2017-11-13T03:35:49.849Z,0
2017-11-13T03:36:59.019Z,0
2017-11-13T03:38:07.844Z,0
2017-11-13T03:39:16.770Z,0
2017-11-13T03:40:25.596Z,0
2017-11-13T03:41:34.762Z,0
2017-11-13T03:42:43.587Z,0
2017-11-13T03:43:52.412Z,0
2017-11-13T03:45:01.290Z,0
2017-11-13T03:46:10.115Z,0
2017-11-13T03:47:18.937Z,0
2017-11-13T03:48:27.763Z,0
2017-11-13T03:49:36.942Z,0
2017-11-13T03:50:46.213Z,0
2017-11-13T03:51:55.040Z,0
2017-11-13T03:53:03.864Z,0
2017-11-13T03:54:12.690Z,0
2017-11-13T03:55:21.515Z,0
2017-11-13T03:56:30.648Z,0
2017-11-13T03:57:39.468Z,0
2017-11-13T03:58:48.294Z,0
2017-11-13T03:59:57.116Z,0
2017-11-13T04:01:05.944Z,0
2017-11-13T04:02:15.030Z,0
2017-11-13T04:03:23.842Z,0
2017-11-13T04:04:32.667Z,0
2017-11-13T04:05:41.493Z,0
2017-11-13T04:06:50.317Z,0
2017-11-13T04:07:59.542Z,0
2017-11-13T04:09:08.370Z,0
2017-11-13T04:10:17.194Z,0
2017-11-13T04:11:26.023Z,0
2017-11-13T04:12:34.846Z,0
2017-11-13T04:13:43.770Z,0
2017-11-13T04:14:52.595Z,0
2017-11-13T04:16:01.423Z,0
2017-11-13T04:17:11.011Z,0
2017-11-13T04:18:20.528Z,0
2017-11-13T04:19:29.555Z,0
2017-11-13T04:20:38.379Z,0
2017-11-13T04:21:47.206Z,0
2017-11-13T04:22:56.032Z,0
2017-11-13T04:24:04.857Z,0
2017-11-13T04:25:14.033Z,0
2017-11-13T04:26:22.855Z,0
2017-11-13T04:27:31.681Z,0
2017-11-13T04:28:40.861Z,0
2017-11-13T04:29:49.679Z,0
2017-11-13T04:30:58.658Z,0
2017-11-13T04:32:07.488Z,0
2017-11-13T04:33:16.311Z,0
2017-11-13T04:34:25.136Z,0
2017-11-13T04:35:33.966Z,0
2017-11-13T04:36:43.337Z,0
2017-11-13T04:37:52.162Z,0
2017-11-13T04:39:00.988Z,0
2017-11-13T04:40:09.820Z,0
2017-11-13T04:41:18.997Z,0
2017-11-13T04:42:27.861Z,0
2017-11-13T04:43:37.032Z,0
2017-11-13T04:44:45.855Z,0
2017-11-13T04:45:54.679Z,0
2017-11-13T04:47:03.504Z,0
2017-11-13T04:48:12.531Z,0
2017-11-13T04:49:21.356Z,0
2017-11-13T04:50:30.182Z,0
2017-11-13T04:51:39.006Z,0
2017-11-13T04:52:47.833Z,0
2017-11-13T04:53:56.807Z,0
2017-11-13T04:55:05.632Z,0
2017-11-13T04:56:14.456Z,0
2017-11-13T04:57:23.281Z,0
2017-11-13T04:58:32.109Z,0
2017-11-13T04:59:40.940Z,0
2017-11-13T05:00:50.127Z,0
2017-11-13T05:01:58.953Z,0
2017-11-13T05:03:07.779Z,0
2017-11-13T05:04:16.606Z,0
2017-11-13T05:05:25.732Z,0
2017-11-13T05:06:34.555Z,0
2017-11-13T05:07:43.381Z,0
2017-11-13T05:08:52.204Z,0
2017-11-13T05:10:01.033Z,0
2017-11-13T05:11:09.907Z,0
2017-11-13T05:12:18.733Z,0
2017-11-13T05:13:27.558Z,0
2017-11-13T05:14:36.391Z,0
2017-11-13T05:15:45.212Z,0
2017-11-13T05:16:54.033Z,0
2017-11-13T05:18:02.855Z,0
2017-11-13T05:19:11.681Z,0
2017-11-13T05:20:20.506Z,0
2017-11-13T05:21:29.332Z,0
2017-11-13T05:22:38.457Z,0
2017-11-13T05:23:47.289Z,0
2017-11-13T05:24:56.108Z,0
2017-11-13T05:26:04.936Z,0
2017-11-13T05:27:13.759Z,0
2017-11-13T05:28:22.981Z,0
2017-11-13T05:29:31.805Z,0
2017-11-13T05:30:40.630Z,0
2017-11-13T05:31:49.457Z,0
2017-11-13T05:32:58.282Z,0
2017-11-13T05:34:07.507Z,0
2017-11-13T05:35:16.341Z,0
2017-11-13T05:36:25.509Z,0
2017-11-13T05:37:34.342Z,0
2017-11-13T05:38:43.162Z,0
2017-11-13T05:39:52.037Z,0
2017-11-13T05:41:00.863Z,0
2017-11-13T05:42:09.689Z,0
2017-11-13T05:43:18.513Z,0
2017-11-13T05:44:27.338Z,0
2017-11-13T05:45:36.163Z,0
2017-11-13T05:46:44.989Z,0
2017-11-13T05:47:53.814Z,0
2017-11-13T05:49:02.638Z,0
2017-11-13T05:50:11.464Z,0
2017-11-13T05:51:20.640Z,0
2017-11-13T05:52:29.806Z,0
2017-11-13T05:53:38.635Z,0
2017-11-13T05:54:47.460Z,0
2017-11-13T05:55:56.286Z,0
2017-11-13T05:57:05.162Z,0
2017-11-13T05:58:13.989Z,0
2017-11-13T05:59:22.812Z,0
2017-11-13T06:00:31.638Z,0
2017-11-13T06:01:40.468Z,0
2017-11-13T06:02:49.595Z,0
2017-11-13T06:03:58.772Z,0
2017-11-13T06:05:07.944Z,0
2017-11-13T06:06:16.767Z,0
2017-11-13T06:07:25.593Z,0
2017-11-13T06:08:34.521Z,0
2017-11-13T06:09:43.348Z,0
2017-11-13T06:10:52.175Z,0
2017-11-13T06:12:00.997Z,0
2017-11-13T06:13:10.174Z,0
2017-11-13T06:14:19.143Z,0
2017-11-13T06:15:27.970Z,0
2017-11-13T06:16:36.793Z,0
2017-11-13T06:17:45.620Z,4
2017-11-13T06:18:54.445Z,4
2017-11-13T06:20:03.638Z,4
2017-11-13T06:21:13.098Z,4
2017-11-13T06:22:22.172Z,4
2017-11-13T06:23:31.500Z,4
2017-11-13T06:24:40.591Z,8
2017-11-13T06:25:49.654Z,4
2017-11-13T06:26:58.649Z,12
2017-11-13T06:28:07.783Z,12
2017-11-13T06:29:16.609Z,12
2017-11-13T06:30:25.442Z,12
2017-11-13T06:31:34.268Z,16
2017-11-13T06:32:43.089Z,20
2017-11-13T06:33:51.913Z,20
2017-11-13T06:35:00.740Z,24
2017-11-13T06:36:09.564Z,32
2017-11-13T06:37:18.390Z,36
2017-11-13T06:38:27.212Z,40
2017-11-13T06:39:36.038Z,44
2017-11-13T06:40:44.875Z,52
2017-11-13T06:41:53.697Z,56
2017-11-13T06:43:02.869Z,64
2017-11-13T06:44:11.694Z,72
2017-11-13T06:45:20.520Z,80
2017-11-13T06:46:29.349Z,88
2017-11-13T06:47:38.176Z,96
2017-11-13T06:48:47.003Z,104
2017-11-13T06:49:55.830Z,116
2017-11-13T06:51:04.704Z,124
2017-11-13T06:52:13.528Z,136
2017-11-13T06:53:22.355Z,144
2017-11-13T06:54:31.523Z,156
2017-11-13T06:55:40.350Z,164
2017-11-13T06:56:49.275Z,176
2017-11-13T06:57:58.101Z,188
2017-11-13T06:59:06.925Z,200
2017-11-13T07:00:15.754Z,212
2017-11-13T07:01:24.931Z,224
2017-11-13T07:02:33.904Z,236
2017-11-13T07:03:42.734Z,248
2017-11-13T07:04:51.559Z,260
2017-11-13T07:06:00.384Z,272
2017-11-13T07:07:09.209Z,284
2017-11-13T07:08:18.085Z,296
2017-11-13T07:09:26.921Z,308
2017-11-13T07:10:35.740Z,320
2017-11-13T07:11:44.566Z,332
2017-11-13T07:12:53.392Z,344
2017-11-13T07:14:02.319Z,360
2017-11-13T07:15:11.147Z,368
2017-11-13T07:16:20.324Z,380
2017-11-13T07:17:29.158Z,392
2017-11-13T07:18:38.324Z,404
2017-11-13T07:19:47.148Z,416
2017-11-13T07:20:55.975Z,424
2017-11-13T07:22:04.799Z,432
2017-11-13T07:23:13.633Z,444
2017-11-13T07:24:22.449Z,456
2017-11-13T07:25:31.376Z,464
2017-11-13T07:26:40.202Z,476
2017-11-13T07:27:49.029Z,488
2017-11-13T07:28:57.855Z,496
2017-11-13T07:30:06.679Z,504
2017-11-13T07:31:15.607Z,516
2017-11-13T07:32:24.432Z,524
2017-11-13T07:33:33.259Z,532
2017-11-13T07:34:42.084Z,540
2017-11-13T07:35:50.910Z,548
2017-11-13T07:36:59.885Z,556
2017-11-13T07:38:08.711Z,564
2017-11-13T07:39:17.578Z,572
2017-11-13T07:40:26.404Z,584
2017-11-13T07:41:35.234Z,588
2017-11-13T07:42:44.061Z,596
2017-11-13T07:43:53.240Z,604
2017-11-13T07:45:02.067Z,612
2017-11-13T07:46:10.898Z,616
2017-11-13T07:47:19.727Z,624
2017-11-13T07:48:28.637Z,632
2017-11-13T07:49:37.494Z,636
2017-11-13T07:50:46.327Z,648
2017-11-13T07:51:55.153Z,652
2017-11-13T07:53:03.991Z,660
2017-11-13T07:54:13.440Z,668
2017-11-13T07:55:22.276Z,672
2017-11-13T07:56:31.131Z,676
2017-11-13T07:57:39.963Z,684
2017-11-13T07:58:49.154Z,688
2017-11-13T07:59:58.038Z,696
2017-11-13T08:01:07.315Z,700
2017-11-13T08:02:16.375Z,708
2017-11-13T08:03:25.555Z,716
2017-11-13T08:04:34.387Z,716
2017-11-13T08:05:43.320Z,724
2017-11-13T08:06:52.159Z,728
2017-11-13T08:08:00.981Z,736
2017-11-13T08:09:09.820Z,740
2017-11-13T08:10:18.721Z,744
2017-11-13T08:11:27.679Z,748
2017-11-13T08:12:36.517Z,752
2017-11-13T08:13:45.777Z,760
2017-11-13T08:14:54.608Z,760
2017-11-13T08:16:03.537Z,764
2017-11-13T08:17:12.749Z,772
2017-11-13T08:18:22.119Z,776
2017-11-13T08:19:31.002Z,780
2017-11-13T08:20:39.830Z,784
2017-11-13T08:21:48.670Z,788
2017-11-13T08:22:57.906Z,788
2017-11-13T08:24:06.868Z,792
2017-11-13T08:25:16.053Z,800
2017-11-13T08:26:24.936Z,804
2017-11-13T08:27:33.850Z,812
2017-11-13T08:28:42.887Z,812
2017-11-13T08:29:51.718Z,812
2017-11-13T08:31:00.771Z,820
2017-11-13T08:32:09.792Z,828
2017-11-13T08:33:18.705Z,828
2017-11-13T08:34:28.134Z,832
2017-11-13T08:35:37.229Z,836
2017-11-13T08:36:46.171Z,840
2017-11-13T08:37:55.220Z,844
2017-11-13T08:39:04.157Z,848
2017-11-13T08:40:13.120Z,852
2017-11-13T08:41:22.337Z,852
2017-11-13T08:42:31.280Z,860
2017-11-13T08:43:40.130Z,864
2017-11-13T08:44:48.991Z,864
2017-11-13T08:45:58.154Z,872
2017-11-13T08:47:08.019Z,872
2017-11-13T08:48:17.932Z,876
2017-11-13T08:49:27.710Z,876
2017-11-13T08:50:36.748Z,880
2017-11-13T08:51:45.984Z,884
2017-11-13T08:52:54.989Z,888
2017-11-13T08:54:04.144Z,892
2017-11-13T08:55:13.036Z,900
2017-11-13T08:56:22.240Z,900
2017-11-13T08:57:31.261Z,900
2017-11-13T08:58:40.451Z,904
2017-11-13T08:59:49.453Z,912
2017-11-13T09:00:58.856Z,916
2017-11-13T09:02:08.362Z,920
2017-11-13T09:03:17.858Z,928
2017-11-13T09:04:27.414Z,940
2017-11-13T09:05:36.301Z,940
2017-11-13T09:06:45.234Z,940
2017-11-13T09:07:54.477Z,948
2017-11-13T09:09:04.200Z,940
2017-11-13T09:10:13.409Z,960
2017-11-13T09:11:22.541Z,964
2017-11-13T09:12:31.406Z,964
2017-11-13T09:13:40.949Z,956
2017-11-13T09:14:49.832Z,956
2017-11-13T09:15:58.664Z,960
2017-11-13T09:17:07.494Z,964
2017-11-13T09:18:16.477Z,968
2017-11-13T09:19:26.098Z,968
2017-11-13T09:20:35.285Z,964
2017-11-13T09:21:44.229Z,964
2017-11-13T09:22:53.062Z,980
2017-11-13T09:24:01.896Z,984
2017-11-13T09:25:10.894Z,992
2017-11-13T09:26:20.191Z,996
2017-11-13T09:27:29.051Z,1004
2017-11-13T09:28:37.880Z,980
2017-11-13T09:29:46.740Z,1000
2017-11-13T09:30:55.750Z,996
2017-11-13T09:32:04.878Z,984
2017-11-13T09:33:14.549Z,984
2017-11-13T09:34:23.605Z,992
2017-11-13T09:35:32.438Z,996
2017-11-13T09:36:41.269Z,996
2017-11-13T09:37:50.112Z,1004
2017-11-13T09:38:59.304Z,996
2017-11-13T09:40:08.141Z,1008
2017-11-13T09:41:17.529Z,1008
2017-11-13T09:42:26.393Z,1012
2017-11-13T09:43:35.374Z,1020
2017-11-13T09:44:44.225Z,1024
2017-11-13T09:45:53.071Z,1028
2017-11-13T09:47:01.967Z,1032
2017-11-13T09:48:11.303Z,1036
2017-11-13T09:49:21.490Z,1040
2017-11-13T09:50:30.328Z,1044
2017-11-13T09:51:39.210Z,1048
2017-11-13T09:52:48.050Z,1044
2017-11-13T09:53:56.895Z,1052
2017-11-13T09:55:06.130Z,1056
2017-11-13T09:56:15.209Z,1060
2017-11-13T09:57:24.618Z,1064
2017-11-13T09:58:33.621Z,1068
2017-11-13T09:59:42.455Z,1076
2017-11-13T10:00:51.498Z,1080
2017-11-13T10:02:00.508Z,1080
2017-11-13T10:03:09.720Z,1084
2017-11-13T10:04:18.848Z,1084
2017-11-13T10:05:27.682Z,1092
2017-11-13T10:06:36.842Z,1100
2017-11-13T10:07:45.753Z,1100
2017-11-13T10:08:55.164Z,1112
2017-11-13T10:10:04.211Z,1132
2017-11-13T10:11:13.110Z,1156
2017-11-13T10:12:22.377Z,1164
2017-11-13T10:13:31.206Z,1180
2017-11-13T10:14:40.124Z,1164
2017-11-13T10:15:49.226Z,1152
2017-11-13T10:16:58.203Z,1136
2017-11-13T10:18:07.116Z,1128
2017-11-13T10:19:16.659Z,1128
2017-11-13T10:20:25.719Z,1128
2017-11-13T10:21:34.956Z,1124
2017-11-13T10:22:43.842Z,1124
2017-11-13T10:23:53.113Z,1140
2017-11-13T10:25:02.222Z,1136
2017-11-13T10:26:11.853Z,1144
2017-11-13T10:27:21.006Z,1156
2017-11-13T10:28:30.247Z,1156
2017-11-13T10:29:39.244Z,1160
2017-11-13T10:30:48.137Z,1168
2017-11-13T10:31:57.020Z,1176
2017-11-13T10:33:05.932Z,1172
2017-11-13T10:34:14.995Z,1176
2017-11-13T10:35:24.510Z,1180
2017-11-13T10:36:33.741Z,1180
2017-11-13T10:37:42.672Z,1184
2017-11-13T10:38:52.679Z,1192
2017-11-13T10:40:01.962Z,1192
2017-11-13T10:41:11.489Z,1196
2017-11-13T10:42:20.651Z,1204
2017-11-13T10:43:29.766Z,1204
2017-11-13T10:44:38.709Z,1216
2017-11-13T10:45:47.647Z,1208
2017-11-13T10:46:56.904Z,1216
2017-11-13T10:48:05.793Z,1228
2017-11-13T10:49:14.663Z,1232
2017-11-13T10:50:23.739Z,1240
2017-11-13T10:51:32.929Z,1248
2017-11-13T10:52:41.999Z,1240
2017-11-13T10:53:50.873Z,1252
2017-11-13T10:54:59.710Z,1260
2017-11-13T10:56:08.554Z,1268
2017-11-13T10:57:18.502Z,1276
2017-11-13T10:58:28.233Z,1268
2017-11-13T10:59:37.435Z,1284
2017-11-13T11:00:46.334Z,1284
2017-11-13T11:01:55.246Z,1292
2017-11-13T11:03:04.084Z,1284
2017-11-13T11:04:13.146Z,1296
2017-11-13T11:05:22.152Z,1296
2017-11-13T11:06:30.998Z,1292
2017-11-13T11:07:39.850Z,1308
2017-11-13T11:08:48.688Z,1308
2017-11-13T11:09:57.819Z,1312
2017-11-13T11:11:06.652Z,1320
2017-11-13T11:12:15.512Z,1324
2017-11-13T11:13:24.350Z,1320
2017-11-13T11:14:33.172Z,1328
2017-11-13T11:15:42.272Z,1336
2017-11-13T11:16:51.109Z,1344
2017-11-13T11:18:00.320Z,1352
2017-11-13T11:19:09.197Z,1336
2017-11-13T11:20:18.350Z,1352
2017-11-13T11:21:27.302Z,1356
2017-11-13T11:22:36.139Z,1356
2017-11-13T11:23:44.972Z,1368
2017-11-13T11:24:53.804Z,1376
2017-11-13T11:26:02.999Z,1380
2017-11-13T11:27:11.932Z,1384
2017-11-13T11:28:21.182Z,1384
2017-11-13T11:29:30.020Z,1388
2017-11-13T11:30:38.861Z,1396
2017-11-13T11:31:47.783Z,1400
2017-11-13T11:32:57.003Z,1400
2017-11-13T11:34:05.874Z,1400
2017-11-13T11:35:14.997Z,1404
2017-11-13T11:36:23.895Z,1404
2017-11-13T11:37:32.730Z,1412
2017-11-13T11:38:41.674Z,1412
2017-11-13T11:39:50.764Z,1412
2017-11-13T11:40:59.597Z,1420
2017-11-13T11:42:08.797Z,1428
2017-11-13T11:43:17.766Z,1444
2017-11-13T11:44:26.992Z,1456
2017-11-13T11:45:36.547Z,1472
2017-11-13T11:46:45.544Z,1528
2017-11-13T11:47:54.444Z,1596
2017-11-13T11:49:03.351Z,1632
2017-11-13T11:50:12.629Z,1640
2017-11-13T11:51:21.555Z,1656
2017-11-13T11:52:30.414Z,1632
2017-11-13T11:53:39.264Z,1572
2017-11-13T11:54:48.105Z,1552
2017-11-13T11:55:57.486Z,1556
2017-11-13T11:57:06.341Z,1552
2017-11-13T11:58:15.180Z,1600
2017-11-13T11:59:24.021Z,1640
2017-11-13T12:00:32.915Z,1652
2017-11-13T12:01:42.551Z,1664
2017-11-13T12:02:52.114Z,1676
2017-11-13T12:04:01.115Z,1660
2017-11-13T12:05:10.241Z,1676
2017-11-13T12:06:19.330Z,1676
2017-11-13T12:07:28.572Z,1684
2017-11-13T12:08:37.775Z,1704
2017-11-13T12:09:46.611Z,1732
2017-11-13T12:10:55.444Z,1748
2017-11-13T12:12:04.291Z,1756
2017-11-13T12:13:13.174Z,1772
2017-11-13T12:14:22.017Z,1772
2017-11-13T12:15:30.867Z,1792
2017-11-13T12:16:39.701Z,1816
2017-11-13T12:17:49.102Z,1848
2017-11-13T12:18:58.037Z,1860
2017-11-13T12:20:06.894Z,1848
2017-11-13T12:21:15.741Z,1824
2017-11-13T12:22:24.575Z,1808
2017-11-13T12:23:33.409Z,1800
2017-11-13T12:24:42.390Z,1796
2017-11-13T12:25:51.282Z,1880
2017-11-13T12:27:00.126Z,1948
2017-11-13T12:28:08.966Z,1992
2017-11-13T12:29:17.881Z,1960
2017-11-13T12:30:26.820Z,1980
2017-11-13T12:31:36.003Z,2164
2017-11-13T12:32:44.918Z,2416
2017-11-13T12:33:54.029Z,2560
2017-11-13T12:35:02.877Z,2596
2017-11-13T12:36:12.690Z,2380
2017-11-13T12:37:21.525Z,2248
2017-11-13T12:38:30.363Z,2116
2017-11-13T12:39:39.199Z,2052
2017-11-13T12:40:48.032Z,2052
2017-11-13T12:41:56.964Z,2396
2017-11-13T12:43:06.148Z,2640
2017-11-13T12:44:14.993Z,2984
2017-11-13T12:45:23.822Z,3204
2017-11-13T12:46:32.657Z,3020
2017-11-13T12:47:41.946Z,2984
2017-11-13T12:48:50.780Z,3344
2017-11-13T12:49:59.614Z,3260
2017-11-13T12:51:08.451Z,2596
2017-11-13T12:52:17.445Z,2428
2017-11-13T12:53:26.353Z,2416
2017-11-13T12:54:35.184Z,2856
2017-11-13T12:55:44.017Z,3244
2017-11-13T12:56:52.852Z,3208
2017-11-13T12:58:01.695Z,3064
2017-11-13T12:59:10.888Z,2808
2017-11-13T13:00:20.424Z,2704
2017-11-13T13:01:29.258Z,3164
2017-11-13T13:02:38.090Z,4068
2017-11-13T13:03:46.926Z,4844
2017-11-13T13:04:55.812Z,4480
2017-11-13T13:06:04.647Z,3744
2017-11-13T13:07:13.834Z,4024
2017-11-13T13:08:22.668Z,4552
2017-11-13T13:09:31.575Z,4256
2017-11-13T13:10:40.411Z,4012
2017-11-13T13:11:49.256Z,3624
2017-11-13T13:12:58.092Z,3376
2017-11-13T13:14:06.941Z,3012
2017-11-13T13:15:15.778Z,3036
2017-11-13T13:16:24.817Z,3772
2017-11-13T13:17:33.653Z,3888
2017-11-13T13:18:42.489Z,3748
2017-11-13T13:19:51.335Z,3672
2017-11-13T13:21:00.544Z,3460
2017-11-13T13:22:09.533Z,3108
2017-11-13T13:23:18.772Z,2680
2017-11-13T13:24:27.611Z,2744
2017-11-13T13:25:36.457Z,3232
2017-11-13T13:26:45.294Z,3300
2017-11-13T13:27:54.184Z,3448
2017-11-13T13:29:03.035Z,3560
2017-11-13T13:30:11.912Z,3568
2017-11-13T13:31:21.016Z,3980
2017-11-13T13:32:30.139Z,5416
2017-11-13T13:33:39.036Z,5764
2017-11-13T13:34:47.886Z,4448
2017-11-13T13:35:56.725Z,3684
2017-11-13T13:37:05.586Z,3572
2017-11-13T13:38:14.474Z,3108
2017-11-13T13:39:23.442Z,2868
2017-11-13T13:40:32.641Z,3028
2017-11-13T13:41:41.987Z,3600
2017-11-13T13:42:50.839Z,4768
2017-11-13T13:43:59.676Z,5216
2017-11-13T13:45:08.569Z,4136
2017-11-13T13:46:17.564Z,3196
2017-11-13T13:47:26.554Z,3376
2017-11-13T13:48:35.455Z,4268
2017-11-13T13:49:44.336Z,6280
2017-11-13T13:50:53.374Z,8164
2017-11-13T13:52:02.213Z,8288
2017-11-13T13:53:11.148Z,8452
2017-11-13T13:54:20.187Z,8092
2017-11-13T13:55:29.205Z,7532
2017-11-13T13:56:38.144Z,7340
2017-11-13T13:57:47.036Z,4908
2017-11-13T13:58:55.879Z,5624
2017-11-13T14:00:04.803Z,6640
2017-11-13T14:01:13.717Z,7388
2017-11-13T14:02:22.997Z,6800
2017-11-13T14:03:31.882Z,5896
2017-11-13T14:04:40.725Z,6172
2017-11-13T14:05:49.984Z,5604
2017-11-13T14:06:58.826Z,5676
2017-11-13T14:08:07.690Z,5780
2017-11-13T14:09:17.334Z,5640
2017-11-13T14:10:26.522Z,5668
2017-11-13T14:11:35.468Z,6376
2017-11-13T14:12:44.326Z,6400
2017-11-13T14:13:53.308Z,6424
2017-11-13T14:15:02.496Z,6136
2017-11-13T14:16:11.339Z,4564
2017-11-13T14:17:20.183Z,6076
2017-11-13T14:18:29.017Z,4484
2017-11-13T14:19:37.858Z,5608
2017-11-13T14:20:46.698Z,1880
2017-11-13T14:21:55.533Z,4956
2017-11-13T14:23:04.398Z,2088
2017-11-13T14:24:13.243Z,2840
2017-11-13T14:25:22.450Z,2284
2017-11-13T14:26:31.367Z,3480
2017-11-13T14:27:40.238Z,1896
2017-11-13T14:28:49.288Z,1392
2017-11-13T14:29:58.280Z,1924
2017-11-13T14:31:07.756Z,2444
2017-11-13T14:32:17.104Z,2544
2017-11-13T14:33:25.942Z,2648
2017-11-13T14:34:34.812Z,1256
2017-11-13T14:35:43.670Z,1132
2017-11-13T14:36:52.663Z,1684
2017-11-13T14:38:01.509Z,2188
2017-11-13T14:39:10.361Z,2628
2017-11-13T14:40:19.382Z,1968
2017-11-13T14:41:28.314Z,1500
2017-11-13T14:42:37.370Z,1396
2017-11-13T14:43:46.257Z,1348
2017-11-13T14:44:55.129Z,1340
2017-11-13T14:46:04.063Z,1176
2017-11-13T14:47:12.993Z,1104
2017-11-13T14:48:21.890Z,1140
2017-11-13T14:49:30.754Z,1392
2017-11-13T14:50:39.615Z,1548
2017-11-13T14:51:48.530Z,1300
2017-11-13T14:52:57.714Z,928
2017-11-13T14:54:06.713Z,884
2017-11-13T14:55:15.695Z,860
2017-11-13T14:56:24.530Z,824
2017-11-13T14:57:33.716Z,808
2017-11-13T14:58:43.598Z,820
2017-11-13T14:59:52.641Z,784
2017-11-13T15:01:01.558Z,768
2017-11-13T15:02:10.485Z,756
2017-11-13T15:03:19.480Z,664
2017-11-13T15:04:28.325Z,668
2017-11-13T15:05:37.176Z,768
2017-11-13T15:06:46.031Z,864
2017-11-13T15:07:54.863Z,800
2017-11-13T15:09:03.760Z,640
2017-11-13T15:10:12.610Z,600
2017-11-13T15:11:21.646Z,648
2017-11-13T15:12:30.478Z,660
2017-11-13T15:13:39.312Z,616
2017-11-13T15:14:48.147Z,548
2017-11-13T15:15:56.985Z,516
2017-11-13T15:17:05.929Z,488
2017-11-13T15:18:14.781Z,452
2017-11-13T15:19:23.617Z,408
2017-11-13T15:20:32.457Z,368
2017-11-13T15:21:41.427Z,328
2017-11-13T15:22:50.315Z,292
2017-11-13T15:23:59.499Z,264
2017-11-13T15:25:08.337Z,236
2017-11-13T15:26:17.178Z,212
2017-11-13T15:27:26.014Z,196
2017-11-13T15:28:35.493Z,180
2017-11-13T15:29:44.487Z,164
2017-11-13T15:30:53.326Z,152
2017-11-13T15:32:02.510Z,140
2017-11-13T15:33:11.354Z,128
2017-11-13T15:34:20.537Z,120
2017-11-13T15:35:29.371Z,108
2017-11-13T15:36:38.203Z,96
2017-11-13T15:37:47.035Z,88
2017-11-13T15:38:55.866Z,80
2017-11-13T15:40:04.698Z,72
2017-11-13T15:41:13.530Z,64
2017-11-13T15:42:22.360Z,60
2017-11-13T15:43:31.498Z,48
2017-11-13T15:44:40.673Z,40
2017-11-13T15:45:49.509Z,40
2017-11-13T15:46:58.342Z,32
2017-11-13T15:48:07.176Z,28
2017-11-13T15:49:16.015Z,24
2017-11-13T15:50:24.844Z,16
2017-11-13T15:51:33.673Z,16
2017-11-13T15:52:42.509Z,16
2017-11-13T15:53:51.335Z,12
2017-11-13T15:55:00.166Z,12
2017-11-13T15:56:08.998Z,8
2017-11-13T15:57:17.828Z,4
2017-11-13T15:58:26.660Z,4
2017-11-13T15:59:35.491Z,4
2017-11-13T16:00:44.321Z,4
2017-11-13T16:01:53.152Z,0
2017-11-13T16:03:01.985Z,4
2017-11-13T16:04:10.842Z,0
2017-11-13T16:05:19.731Z,0
2017-11-13T16:06:28.615Z,4
2017-11-13T16:07:37.446Z,0